createdAt,value
2023-05-07T00:04:47.663Z,15.26
2023-05-07T00:09:37.664Z,15.20
2023-05-07T00:14:27.537Z,15.24
2023-05-07T00:19:17.722Z,15.23
2023-05-07T00:24:10.438Z,14.93
2023-05-07T00:29:00.276Z,14.81
2023-05-07T00:33:50.191Z,15.14
2023-05-07T00:38:40.739Z,15.22
2023-05-07T00:43:33.402Z,15.12
2023-05-07T00:48:25.472Z,14.99
2023-05-07T00:53:16.160Z,15.10
2023-05-07T00:58:08.181Z,14.97
2023-05-07T01:03:01.514Z,14.89
2023-05-07T01:07:54.113Z,14.91
2023-05-07T01:12:45.082Z,14.68
2023-05-07T01:17:37.723Z,14.69
2023-05-07T01:22:37.749Z,14.84
2023-05-07T01:27:27.978Z,14.80
2023-05-07T01:32:19.745Z,14.71
2023-05-07T01:37:09.888Z,14.81
2023-05-07T01:42:03.465Z,14.78
2023-05-07T01:46:53.823Z,14.84
2023-05-07T01:51:44.642Z,14.73
2023-05-07T01:56:35.066Z,14.72
2023-05-07T02:01:28.931Z,14.76
2023-05-07T02:06:20.881Z,14.69
2023-05-07T02:11:16.304Z,14.28
2023-05-07T02:16:06.845Z,14.23
2023-05-07T02:20:59.823Z,14.54
2023-05-07T02:25:50.585Z,14.34
2023-05-07T02:30:41.404Z,14.31
2023-05-07T02:35:32.163Z,14.30
2023-05-07T02:40:25.098Z,14.63
2023-05-07T02:45:15.627Z,14.56
2023-05-07T02:50:07.757Z,14.48
2023-05-07T02:54:57.877Z,14.25
2023-05-07T02:59:52.978Z,14.19
2023-05-07T03:04:45.190Z,14.11
2023-05-07T03:09:35.818Z,14.17
2023-05-07T03:14:25.996Z,14.41
2023-05-07T03:19:18.659Z,14.45
2023-05-07T03:24:09.654Z,14.38
2023-05-07T03:28:59.655Z,14.35
2023-05-07T03:33:56.783Z,14.35
2023-05-07T03:38:50.526Z,13.72
2023-05-07T03:43:43.981Z,13.76
2023-05-07T03:48:35.785Z,13.87
2023-05-07T03:53:25.716Z,13.77
2023-05-07T03:58:18.253Z,13.97
2023-05-07T04:03:08.893Z,13.95
2023-05-07T04:07:58.971Z,13.94
2023-05-07T04:12:58.245Z,13.96
2023-05-07T04:17:52.852Z,13.98
2023-05-07T04:22:45.578Z,13.90
2023-05-07T04:27:35.733Z,14.01
2023-05-07T04:32:26.724Z,13.95
2023-05-07T04:37:19.611Z,14.02
2023-05-07T04:42:10.099Z,13.81
2023-05-07T04:47:00.633Z,14.02
2023-05-07T04:51:50.802Z,14.03
2023-05-07T04:56:46.886Z,13.97
2023-05-07T05:01:37.197Z,14.01
2023-05-07T05:06:30.246Z,14.20
2023-05-07T05:11:20.225Z,14.17
2023-05-07T05:16:14.313Z,14.19
2023-05-07T05:21:04.920Z,14.18
2023-05-07T05:25:59.832Z,14.26
2023-05-07T05:30:52.894Z,14.12
2023-05-07T05:35:46.202Z,14.02
2023-05-07T05:40:42.399Z,14.28
2023-05-07T05:45:32.601Z,14.26
2023-05-07T05:50:23.222Z,14.21
2023-05-07T05:55:20.478Z,14.29
2023-05-07T06:00:12.403Z,14.41
2023-05-07T06:05:10.026Z,14.28
2023-05-07T06:10:00.455Z,14.49
2023-05-07T06:14:56.888Z,14.40
2023-05-07T06:19:53.226Z,14.27
2023-05-07T06:24:47.496Z,14.39
2023-05-07T06:29:37.830Z,14.23
2023-05-07T06:34:37.778Z,14.21
2023-05-07T06:39:31.735Z,14.51
2023-05-07T06:44:21.909Z,14.68
2023-05-07T06:49:22.418Z,14.87
2023-05-07T06:54:15.950Z,14.94
2023-05-07T06:59:07.835Z,15.16
2023-05-07T07:04:02.609Z,15.27
2023-05-07T07:08:55.406Z,15.40
2023-05-07T07:13:48.044Z,15.36
2023-05-07T07:18:38.296Z,15.06
2023-05-07T07:23:28.359Z,15.31
2023-05-07T07:28:18.595Z,15.38
2023-05-07T07:33:11.289Z,15.47
2023-05-07T07:38:03.406Z,15.49
2023-05-07T07:42:53.788Z,15.49
2023-05-07T07:47:44.400Z,15.57
2023-05-07T07:52:37.604Z,15.51
2023-05-07T07:57:28.029Z,15.63
2023-05-07T08:02:18.825Z,15.64
2023-05-07T08:07:09.221Z,15.63
2023-05-07T08:12:05.527Z,15.69
2023-05-07T08:16:57.059Z,15.94
2023-05-07T08:21:48.822Z,16.04
2023-05-07T08:26:40.600Z,16.29
2023-05-07T08:31:35.151Z,16.58
2023-05-07T08:36:25.174Z,16.85
2023-05-07T08:41:14.976Z,17.09
2023-05-07T08:46:10.180Z,17.37
2023-05-07T08:51:06.195Z,17.77
2023-05-07T08:55:57.288Z,18.27
2023-05-07T09:00:47.764Z,19.70
2023-05-07T09:05:38.278Z,20.50
2023-05-07T09:10:36.511Z,20.43
2023-05-07T09:15:27.466Z,20.68
2023-05-07T09:20:17.865Z,21.05
2023-05-07T09:25:08.726Z,21.17
2023-05-07T09:30:02.382Z,21.45
2023-05-07T09:34:52.319Z,21.71
2023-05-07T09:39:46.086Z,21.98
2023-05-07T09:44:38.089Z,22.26
2023-05-07T09:49:37.322Z,22.73
2023-05-07T09:54:32.288Z,22.71
2023-05-07T09:59:22.742Z,22.75
2023-05-07T10:04:13.823Z,23.11
2023-05-07T10:09:09.351Z,23.20
2023-05-07T10:14:01.425Z,23.18
2023-05-07T10:18:54.466Z,23.21
2023-05-07T10:23:49.533Z,23.03
2023-05-07T10:28:47.192Z,23.02
2023-05-07T10:33:38.702Z,22.63
2023-05-07T10:38:29.359Z,22.66
2023-05-07T10:43:20.300Z,22.35
2023-05-07T10:48:30.357Z,22.24
2023-05-07T10:53:31.465Z,22.44
2023-05-07T10:58:32.870Z,22.50
2023-05-07T11:04:25.864Z,22.40
2023-05-07T11:09:28.637Z,22.20
2023-05-07T11:14:35.782Z,22.15
2023-05-07T11:19:47.765Z,22.18
2023-05-07T11:24:46.343Z,22.04
2023-05-07T11:29:37.396Z,21.90
2023-05-07T11:34:31.327Z,21.82
2023-05-07T11:39:29.208Z,21.73
2023-05-07T11:44:21.588Z,21.86
2023-05-07T11:49:11.435Z,22.02
2023-05-07T11:54:01.013Z,21.88
2023-05-07T11:58:53.322Z,21.87
2023-05-07T12:03:47.377Z,21.96
2023-05-07T12:08:40.266Z,21.93
2023-05-07T12:13:30.114Z,21.84
2023-05-07T12:18:25.022Z,21.79
2023-05-07T12:23:17.911Z,21.59
2023-05-07T12:28:08.071Z,21.29
2023-05-07T12:32:58.034Z,20.94
2023-05-07T12:37:47.744Z,20.47
2023-05-07T12:42:40.469Z,19.50
2023-05-07T12:47:30.246Z,18.78
2023-05-07T12:52:20.016Z,18.26
2023-05-07T12:57:10.867Z,18.05
2023-05-07T13:02:03.213Z,17.91
2023-05-07T13:06:52.896Z,17.75
2023-05-07T13:11:43.077Z,17.53
2023-05-07T13:16:33.444Z,17.55
2023-05-07T13:21:26.153Z,17.57
2023-05-07T13:26:26.357Z,17.63
2023-05-07T13:31:17.304Z,17.52
2023-05-07T13:36:08.326Z,17.70
2023-05-07T13:41:01.046Z,17.73
2023-05-07T13:45:53.352Z,17.70
2023-05-07T13:50:45.661Z,17.81
2023-05-07T13:55:37.558Z,17.77
2023-05-07T14:00:33.805Z,17.70
2023-05-07T14:05:30.656Z,17.77
2023-05-07T14:10:25.155Z,17.44
2023-05-07T14:15:19.910Z,17.37
2023-05-07T14:20:14.637Z,17.88
2023-05-07T14:25:14.736Z,17.99
2023-05-07T14:30:16.487Z,18.25
2023-05-07T14:35:06.594Z,18.30
2023-05-07T14:39:59.164Z,18.25
2023-05-07T14:44:59.109Z,18.28
2023-05-07T14:49:51.654Z,18.36
2023-05-07T14:54:42.287Z,18.33
2023-05-07T14:59:35.090Z,18.44
2023-05-07T15:04:27.592Z,18.45
2023-05-07T15:09:17.569Z,18.56
2023-05-07T15:14:08.575Z,18.67
2023-05-07T15:19:01.185Z,18.90
2023-05-07T15:23:52.355Z,18.81
2023-05-07T15:28:42.430Z,19.12
2023-05-07T15:33:32.360Z,19.08
2023-05-07T15:38:24.616Z,19.53
2023-05-07T15:43:15.372Z,19.60
2023-05-07T15:48:05.357Z,19.15
2023-05-07T15:52:55.570Z,19.31
2023-05-07T15:57:47.876Z,19.28
2023-05-07T16:02:37.859Z,19.14
2023-05-07T16:07:27.698Z,19.03
2023-05-07T16:12:18.338Z,18.92
2023-05-07T16:17:11.389Z,18.80
2023-05-07T16:22:01.311Z,18.52
2023-05-07T16:26:51.150Z,18.41
2023-05-07T16:31:41.163Z,18.23
2023-05-07T16:36:33.826Z,18.13
2023-05-07T16:41:24.131Z,18.04
2023-05-07T16:46:14.184Z,17.65
2023-05-07T16:51:04.199Z,17.73
2023-05-07T16:55:56.839Z,17.64
2023-05-07T17:00:50.733Z,17.52
2023-05-07T17:05:41.537Z,17.45
2023-05-07T17:10:31.424Z,17.45
2023-05-07T17:15:26.734Z,17.40
2023-05-07T17:20:17.444Z,17.32
2023-05-07T17:25:08.174Z,17.32
2023-05-07T17:29:58.799Z,17.02
2023-05-07T17:34:51.638Z,17.11
2023-05-07T17:39:41.497Z,17.21
2023-05-07T17:44:31.518Z,17.24
2023-05-07T17:49:27.353Z,17.12
2023-05-07T17:54:20.088Z,16.77
2023-05-07T17:59:09.972Z,16.81
2023-05-07T18:04:00.677Z,17.10
2023-05-07T18:08:51.093Z,16.84
2023-05-07T18:13:44.850Z,16.89
2023-05-07T18:18:37.774Z,16.64
2023-05-07T18:23:27.951Z,16.62
2023-05-07T18:28:18.209Z,16.81
2023-05-07T18:33:10.743Z,16.73
2023-05-07T18:38:00.863Z,16.59
2023-05-07T18:42:50.884Z,16.71
2023-05-07T18:47:41.115Z,16.68
2023-05-07T18:52:33.919Z,16.40
2023-05-07T18:57:24.974Z,16.81
2023-05-07T19:02:16.910Z,16.76
2023-05-07T19:07:08.909Z,16.78
2023-05-07T19:12:03.761Z,16.51
2023-05-07T19:16:55.339Z,16.73
2023-05-07T19:21:45.337Z,16.77
2023-05-07T19:26:35.454Z,16.66
2023-05-07T19:31:33.023Z,16.78
2023-05-07T19:36:24.031Z,16.54
2023-05-07T19:41:14.711Z,16.73
2023-05-07T19:46:04.693Z,16.50
2023-05-07T19:50:57.385Z,16.40
2023-05-07T19:55:47.452Z,16.66
2023-05-07T20:00:37.801Z,16.64
2023-05-07T20:05:28.397Z,16.62
2023-05-07T20:10:21.416Z,16.61
2023-05-07T20:15:13.181Z,16.67
2023-05-07T20:20:04.044Z,16.66
2023-05-07T20:24:53.992Z,16.64
2023-05-07T20:29:46.410Z,16.68
2023-05-07T20:34:36.512Z,16.59
2023-05-07T20:39:27.010Z,16.62
2023-05-07T20:44:17.441Z,16.62
2023-05-07T20:49:09.914Z,16.63
2023-05-07T20:53:59.736Z,16.58
2023-05-07T20:58:49.672Z,16.51
2023-05-07T21:03:46.156Z,16.59
2023-05-07T21:08:38.800Z,16.30
2023-05-07T21:13:28.699Z,16.57
2023-05-07T21:18:19.108Z,16.46
2023-05-07T21:23:08.957Z,16.34
2023-05-07T21:28:01.506Z,16.31
2023-05-07T21:32:54.203Z,16.29
2023-05-07T21:37:46.509Z,16.36
2023-05-07T21:42:36.428Z,16.39
2023-05-07T21:47:29.081Z,16.43
2023-05-07T21:52:20.908Z,16.43
2023-05-07T21:57:11.331Z,16.27
2023-05-07T22:02:01.364Z,16.37
2023-05-07T22:06:53.976Z,16.07
2023-05-07T22:11:43.910Z,16.07
2023-05-07T22:16:33.782Z,16.28
2023-05-07T22:21:23.789Z,16.11
2023-05-07T22:26:17.008Z,16.08
2023-05-07T22:31:06.899Z,16.16
2023-05-07T22:35:56.793Z,16.11
2023-05-07T22:40:46.670Z,16.05
2023-05-07T22:45:39.373Z,16.02
2023-05-07T22:50:29.249Z,15.91
2023-05-07T22:55:19.288Z,15.85
2023-05-07T23:00:11.082Z,15.82
2023-05-07T23:05:04.640Z,15.80
2023-05-07T23:09:54.518Z,15.61
2023-05-07T23:14:44.273Z,15.52
2023-05-07T23:19:34.178Z,15.51
2023-05-07T23:24:26.776Z,15.51
2023-05-07T23:29:19.049Z,15.55
2023-05-07T23:34:08.968Z,15.75
2023-05-07T23:38:58.875Z,15.47
2023-05-07T23:43:51.562Z,15.51
2023-05-07T23:48:43.231Z,15.51
2023-05-07T23:53:33.421Z,15.34
2023-05-07T23:58:23.342Z,15.45
